MSLPMRLB

Guest
Details From MSLP - El Salvador Intl
To MRLB - Daniel Oduber Quiros Intl
Flight Number -
Tags generated
Created
Modified
Stats Distance 268 nm / 496 km
Max Altitude 29,400 ft / 8,961 m
Waypoints 6
Social Downloads 0
Likes 0
Share VATSIM

Download

Looking for another format? Having issues loading an existing format? Contact us
Advertisement - Login to hide

Notes

Basic altitude profile: - Ascent Rate: 2500ft/min - Ascent Speed: 250kts - Cruise Altitude: 35000ft - Cruise Speed: 420kts - Descent Rate: 1500ft/min - Descent Speed: 250kts Options: - Use NATs: yes - Use PACOTS: yes - Use low airways: yes - Use high airways: yes

Route

MSLP ANAPO UG436 ARLEN G436 LIB MRLB

ID Type Via Altitude Latitude Longitude Leg Dist Tot Dist Heading (true) Name
O MSLP APT - 0 ft / 0 m 13.44567˚ -89.05174˚ - 0 nm - El Salvador Intl
ANAPO FIX - 29,400 ft / 8,961 m 12.53000˚ -87.99889˚ 82 nm 82 nm 132° / 132° -
ARLEN FIX UG436 (AWY-HI) 23,700 ft / 7,224 m 11.80000˚ -87.06778˚ 70 nm 152 nm 129° / 129° -
ELENA FIX G436 (AWY-LO) 8,000 ft / 2,438 m 10.86639˚ -85.88917˚ 89 nm 241 nm 129° / 129° -
LIB VOR G436 (AWY-LO) 8,000 ft / 2,438 m 10.59419˚ -85.54636˚ 26 nm 267 nm 129° / 129° LIBERIA VOR-DME
O MRLB APT - 0 ft / 0 m 10.59329˚ -85.54441˚ 0 nm 268 nm 115° / 115° Daniel Oduber Quiros Intl

Altitude Profile

Advertisement - Login to hide

Weather


0- 5 10 15 20 25 30 35+ Temperature / ° C

Clouds and Precipitation
Forecast for 2017-12-18 12:00 UTC. Updated 2 hours ago

Ground ~20,000 ft ~40,000 ft Winds

MSLP

Details ICAO MSLP (SAL)
Name El Salvador Intl
Region El Salvador
Timezone America/El_Salvador (UTC-6.0)
Stats Elevation 101 ft / 31 m (AMSL)
Location 13.445666° -89.051739°
Runways 2
Magnetic Variation 0.450° E

METAR

MSLP 181250Z 03006KT CAVOK 27/19 Q1011 A2986 NOSIG

Decode

TAF

Not found

Departure Runways

ID Width Length Bearing (true) Bearing (mag) Surface Threshold Offset Overrun Length
07 148 ft / 45 m 10,507 ft / 3,202 m 69.86° 69.41° Asphalt 0 ft / 0 m 200 ft / 61 m
18 75 ft / 23 m 2,639 ft / 804 m 180.00° 179.55° Asphalt 0 ft / 0 m 120 ft / 37 m
25 148 ft / 45 m 10,507 ft / 3,202 m 249.87° 249.42° Asphalt 0 ft / 0 m 200 ft / 61 m
36 75 ft / 23 m 2,639 ft / 804 m 0.00° 359.55° Asphalt 0 ft / 0 m 120 ft / 37 m

MRLB

Details ICAO MRLB (LIR)
Name Daniel Oduber Quiros Intl
Region Costa Rica
Timezone America/Costa_Rica (UTC-6.0)
Stats Elevation 270 ft / 82 m (AMSL)
Location 10.593289° -85.544410°
Runways 1
Magnetic Variation 1.042° W

METAR

MRLB 181300Z 10004KT 9999 FEW040 26/21 A2983 NOSIG

Decode

TAF

Not found

Destination Runways

ID Width Length Bearing (true) Bearing (mag) Surface Threshold Offset Overrun Length
07 148 ft / 45 m 9,068 ft / 2,764 m 70.05° 71.09° Asphalt 0 ft / 0 m 0 ft / 0 m
25 148 ft / 45 m 9,068 ft / 2,764 m 250.05° 251.09° Asphalt 0 ft / 0 m 0 ft / 0 m